Terminal Aerodrome Forecast
Issued by NWS

Home | Current Version | Previous Version | Text Only | Print | Product List | Glossary On
Versions: 1 2 3 4 5 6 7 8 9 10 11 12
000
FTUS42 TJSJ 270500
TAFKPK
TAF
TKPK 270526Z 2706/2806 08007KT P6SM FEW021
     FM271300 11013KT P6SM SCT022
     FM272300 10009KT P6SM FEW020
      AMD NOT SKED TIL 271100=

USA.gov is the U.S. government's official web portal to all federal, state and local government web resources and services.